Time;durP1;ratioP1;P1;durP2;ratioP2;P2;SDS_P1;SDS_P2;PMS_P1;PMS_P2;Temp;Humidity;BMP_temperature;BMP_pressure;BME280_temperature;BME280_humidity;BME280_pressure;Samples;Min_cycle;Max_cycle;Signal;HPM_P1;HPM_P2
2024/02/21 00:00:24;;;;;;;11.33;4.10;;;6.90;99.90;;;;;;5107202;28;20959;-70
2024/02/21 00:02:53;;;;;;;12.40;4.20;;;6.90;99.90;;;;;;5108439;28;20500;-72
2024/02/21 00:05:24;;;;;;;14.73;4.00;;;6.80;99.90;;;;;;5104842;28;20462;-72
2024/02/21 00:07:52;;;;;;;15.77;5.07;;;6.70;99.90;;;;;;5104268;28;20477;-71
2024/02/21 00:10:20;;;;;;;18.73;4.90;;;6.70;99.90;;;;;;5107331;28;20445;-70
2024/02/21 00:12:48;;;;;;;19.07;4.40;;;6.60;99.90;;;;;;5107618;28;21010;-71
2024/02/21 00:15:16;;;;;;;11.80;4.73;;;6.70;99.90;;;;;;5107076;28;20493;-71
2024/02/21 00:17:45;;;;;;;12.80;4.70;;;6.70;99.90;;;;;;5107541;28;20436;-71
2024/02/21 00:20:15;;;;;;;14.30;5.73;;;6.70;99.90;;;;;;5108082;28;20437;-71
2024/02/21 00:22:42;;;;;;;13.40;4.00;;;6.70;99.90;;;;;;5106613;28;20469;-71
2024/02/21 00:25:11;;;;;;;11.90;4.13;;;6.80;99.90;;;;;;5103901;28;20453;-71
2024/02/21 00:27:39;;;;;;;14.30;4.60;;;6.90;99.90;;;;;;5103088;28;20850;-71
2024/02/21 00:30:08;;;;;;;17.20;4.30;;;6.90;99.90;;;;;;5107147;28;21138;-71
2024/02/21 00:32:36;;;;;;;14.90;5.07;;;7.00;99.90;;;;;;5105025;28;20857;-71
2024/02/21 00:35:05;;;;;;;15.70;4.40;;;7.00;99.90;;;;;;5106928;28;20472;-71
2024/02/21 00:37:34;;;;;;;11.60;4.30;;;7.00;99.90;;;;;;5096453;28;20502;-71
2024/02/21 00:40:02;;;;;;;16.03;4.47;;;7.00;99.90;;;;;;5104693;28;20955;-71
2024/02/21 00:42:31;;;;;;;12.63;4.40;;;7.00;99.90;;;;;;5104688;28;20458;-71
2024/02/21 00:45:00;;;;;;;12.77;4.30;;;7.00;99.90;;;;;;5106038;28;20802;-71
2024/02/21 00:47:28;;;;;;;17.07;5.50;;;7.10;99.90;;;;;;5105566;28;20504;-71
2024/02/21 00:49:56;;;;;;;11.30;4.23;;;7.10;99.90;;;;;;5101655;28;20955;-70
2024/02/21 00:52:23;;;;;;;12.40;4.90;;;7.20;99.90;;;;;;5105618;28;20500;-70
2024/02/21 00:54:53;;;;;;;13.77;4.53;;;7.20;99.90;;;;;;5106630;28;20493;-70
2024/02/21 00:57:23;;;;;;;15.13;4.10;;;7.10;99.90;;;;;;5103955;28;20487;-71
2024/02/21 00:59:51;;;;;;;13.90;4.33;;;7.10;99.90;;;;;;5105644;28;21115;-71
2024/02/21 01:02:19;;;;;;;15.50;4.80;;;7.10;99.90;;;;;;5103307;28;20857;-70
2024/02/21 01:04:47;;;;;;;15.70;5.20;;;7.20;99.90;;;;;;5101229;28;20458;-71
2024/02/21 01:07:15;;;;;;;15.57;4.23;;;7.20;99.90;;;;;;5104876;28;20486;-71
2024/02/21 01:09:43;;;;;;;14.00;4.77;;;7.20;99.90;;;;;;5104045;28;20483;-71
2024/02/21 01:12:13;;;;;;;14.10;4.50;;;7.10;99.90;;;;;;5101306;28;20975;-71
2024/02/21 01:14:41;;;;;;;13.37;5.87;;;7.10;99.90;;;;;;5106237;28;20500;-71
2024/02/21 01:17:09;;;;;;;13.47;4.20;;;7.10;99.90;;;;;;5105496;28;20498;-70
2024/02/21 01:19:37;;;;;;;10.37;4.17;;;7.00;99.90;;;;;;5105768;28;20830;-70
2024/02/21 01:22:05;;;;;;;14.70;4.47;;;7.00;99.90;;;;;;5103719;28;20790;-71
2024/02/21 01:24:33;;;;;;;13.10;4.80;;;7.00;99.90;;;;;;5105790;28;20518;-71
2024/02/21 01:27:01;;;;;;;14.53;4.73;;;7.00;99.90;;;;;;5101218;28;20445;-71
2024/02/21 01:29:30;;;;;;;11.17;3.27;;;6.90;99.90;;;;;;5104701;28;22087;-71
2024/02/21 01:31:58;;;;;;;15.30;5.43;;;6.90;99.90;;;;;;5106186;28;20446;-70
2024/02/21 01:34:26;;;;;;;22.70;5.70;;;7.00;99.90;;;;;;5104466;28;20454;-70
2024/02/21 01:37:04;;;;;;;12.97;4.57;;;7.00;99.90;;;;;;5103491;28;20437;-70
2024/02/21 01:39:32;;;;;;;14.03;4.40;;;7.00;99.90;;;;;;5103572;28;20445;-70
2024/02/21 01:42:00;;;;;;;14.40;5.17;;;7.00;99.90;;;;;;5097300;28;20468;-70
2024/02/21 01:44:28;;;;;;;20.10;6.53;;;7.00;99.90;;;;;;5105257;28;20453;-70
2024/02/21 01:46:57;;;;;;;13.57;4.10;;;6.90;99.90;;;;;;5104555;28;20518;-70
2024/02/21 01:49:25;;;;;;;12.50;3.87;;;6.90;99.90;;;;;;5102626;28;20534;-71
2024/02/21 01:51:54;;;;;;;11.73;3.87;;;6.80;99.90;;;;;;5098624;28;20430;-70
2024/02/21 01:54:22;;;;;;;13.00;4.00;;;6.80;99.90;;;;;;5106323;28;20465;-70
2024/02/21 01:56:51;;;;;;;13.13;4.27;;;6.90;99.90;;;;;;5106619;28;20433;-70
2024/02/21 01:59:20;;;;;;;13.63;4.30;;;6.90;99.90;;;;;;5103836;28;20462;-71
2024/02/21 02:01:48;;;;;;;13.00;5.10;;;6.90;99.90;;;;;;5093632;28;20454;-70
2024/02/21 02:04:17;;;;;;;15.20;4.30;;;6.80;99.90;;;;;;5102810;28;20521;-71
2024/02/21 02:06:45;;;;;;;14.57;4.77;;;6.80;99.90;;;;;;5101666;28;20429;-71
2024/02/21 02:09:13;;;;;;;14.40;4.00;;;6.80;99.90;;;;;;5096242;28;20560;-71
2024/02/21 02:11:41;;;;;;;13.50;4.80;;;6.80;99.90;;;;;;5101827;28;20443;-71
2024/02/21 02:14:09;;;;;;;13.70;4.03;;;6.80;99.90;;;;;;5100641;28;20441;-71
2024/02/21 02:16:37;;;;;;;12.73;4.13;;;6.90;99.90;;;;;;5104418;28;20506;-69
2024/02/21 02:19:06;;;;;;;12.93;4.10;;;7.00;99.90;;;;;;5105958;28;20434;-71
2024/02/21 02:21:42;;;;;;;13.50;5.77;;;7.00;99.90;;;;;;5092997;28;20450;-70
2024/02/21 02:24:11;;;;;;;12.43;4.07;;;7.10;99.90;;;;;;5103051;28;20434;-70
2024/02/21 02:26:39;;;;;;;15.20;4.13;;;7.00;99.90;;;;;;5103186;28;20442;-71
2024/02/21 02:29:07;;;;;;;14.57;5.63;;;7.10;99.90;;;;;;5107603;28;20477;-70
2024/02/21 02:31:36;;;;;;;12.17;4.07;;;7.10;99.90;;;;;;5106247;28;20453;-70
2024/02/21 02:34:05;;;;;;;12.83;4.03;;;7.10;99.90;;;;;;5102318;28;20447;-71
2024/02/21 02:36:34;;;;;;;11.80;4.33;;;7.10;99.90;;;;;;5105771;28;20456;-70
2024/02/21 02:39:02;;;;;;;11.67;3.80;;;7.10;99.90;;;;;;5104516;28;20798;-71
2024/02/21 02:41:31;;;;;;;13.17;4.37;;;7.20;99.90;;;;;;5109041;28;20444;-71
2024/02/21 02:43:59;;;;;;;11.77;3.90;;;7.10;99.90;;;;;;5104754;28;20998;-71
2024/02/21 02:46:27;;;;;;;10.43;4.17;;;7.10;99.90;;;;;;5102579;28;20451;-71
2024/02/21 02:48:55;;;;;;;20.00;6.30;;;7.10;99.90;;;;;;5106072;28;21050;-70
2024/02/21 02:51:23;;;;;;;10.10;3.97;;;7.20;99.90;;;;;;5104097;28;20449;-71
2024/02/21 02:53:51;;;;;;;13.43;4.00;;;7.20;99.90;;;;;;5102675;28;20536;-70
2024/02/21 02:56:19;;;;;;;11.70;4.13;;;7.10;99.90;;;;;;5108765;28;20444;-71
2024/02/21 02:58:48;;;;;;;9.80;3.47;;;7.00;99.90;;;;;;5106343;28;20441;-71
2024/02/21 03:01:16;;;;;;;12.77;3.23;;;7.00;99.90;;;;;;5107543;28;20502;-71
2024/02/21 03:03:45;;;;;;;13.40;4.00;;;6.90;99.90;;;;;;5105345;28;20531;-71
2024/02/21 03:06:13;;;;;;;13.33;4.23;;;6.80;99.90;;;;;;5107434;28;21001;-71
2024/02/21 03:08:43;;;;;;;10.50;4.40;;;6.70;99.90;;;;;;5108145;28;20871;-71
2024/02/21 03:11:11;;;;;;;12.77;3.70;;;6.70;99.90;;;;;;5108125;28;21051;-71
2024/02/21 03:13:40;;;;;;;11.13;4.03;;;6.70;99.90;;;;;;5107360;28;20464;-71
2024/02/21 03:16:09;;;;;;;12.30;3.70;;;6.70;99.90;;;;;;5107068;28;20478;-70
2024/02/21 03:18:37;;;;;;;10.73;3.80;;;6.70;99.90;;;;;;5106613;28;20641;-71
2024/02/21 03:21:06;;;;;;;15.03;3.50;;;6.70;99.90;;;;;;5107795;28;20451;-71
2024/02/21 03:23:34;;;;;;;19.13;4.00;;;6.60;99.90;;;;;;5107462;28;20442;-71
2024/02/21 03:26:01;;;;;;;14.37;3.77;;;6.40;99.90;;;;;;5108055;28;20475;-71
2024/02/21 03:28:29;;;;;;;11.97;3.20;;;6.30;99.90;;;;;;5107267;28;20451;-70
2024/02/21 03:30:58;;;;;;;10.07;2.80;;;6.30;99.90;;;;;;5107983;28;20532;-71
2024/02/21 03:33:28;;;;;;;12.30;3.07;;;6.20;99.90;;;;;;5105689;28;20491;-72
2024/02/21 03:35:56;;;;;;;13.73;3.37;;;6.10;99.90;;;;;;5108246;28;20457;-71
2024/02/21 03:38:24;;;;;;;11.43;3.80;;;6.00;99.90;;;;;;5106501;28;20817;-71
2024/02/21 03:40:51;;;;;;;10.60;3.50;;;6.10;99.90;;;;;;5104902;28;20467;-71
2024/02/21 03:43:19;;;;;;;12.63;3.83;;;6.20;99.90;;;;;;5103379;28;20517;-71
2024/02/21 03:45:47;;;;;;;12.87;3.67;;;6.10;99.90;;;;;;5098870;28;20969;-71
2024/02/21 03:48:15;;;;;;;12.83;3.40;;;6.10;99.90;;;;;;5105572;28;20453;-71
2024/02/21 03:50:44;;;;;;;12.10;4.00;;;6.20;99.90;;;;;;5102881;28;20534;-71
2024/02/21 03:53:12;;;;;;;11.60;3.20;;;6.10;99.90;;;;;;5102081;28;20446;-71
2024/02/21 03:55:40;;;;;;;10.33;3.50;;;6.10;99.90;;;;;;5104454;28;20549;-71
2024/02/21 03:58:08;;;;;;;11.83;3.67;;;6.10;99.90;;;;;;5101929;28;20438;-71
2024/02/21 04:00:36;;;;;;;13.03;3.20;;;6.10;99.90;;;;;;5107132;28;20441;-71
2024/02/21 04:03:06;;;;;;;12.57;3.90;;;6.00;99.90;;;;;;5106404;28;20518;-71
2024/02/21 04:05:34;;;;;;;17.10;3.83;;;6.00;99.90;;;;;;5099349;28;20480;-71
2024/02/21 04:08:06;;;;;;;13.33;3.13;;;6.10;99.90;;;;;;5106886;28;20923;-71
2024/02/21 04:10:34;;;;;;;11.03;3.20;;;6.20;99.90;;;;;;5104971;28;20477;-71
2024/02/21 04:13:02;;;;;;;11.27;3.03;;;6.10;99.90;;;;;;5106101;28;20456;-70
2024/02/21 04:15:30;;;;;;;9.50;2.70;;;6.10;99.90;;;;;;5106621;28;20813;-71
2024/02/21 04:17:58;;;;;;;14.13;3.50;;;6.10;99.90;;;;;;5107620;28;20442;-70
2024/02/21 04:20:26;;;;;;;12.37;3.83;;;6.10;99.90;;;;;;5102259;28;20506;-71
2024/02/21 04:22:54;;;;;;;16.60;3.23;;;6.00;99.90;;;;;;5102636;28;20445;-71
2024/02/21 04:25:26;;;;;;;11.17;3.10;;;6.00;99.90;;;;;;5103484;28;20469;-71
2024/02/21 04:27:54;;;;;;;8.70;3.00;;;5.90;99.90;;;;;;5097199;28;20840;-70
2024/02/21 04:30:25;;;;;;;12.33;4.13;;;5.90;99.90;;;;;;5101168;28;20493;-71
2024/02/21 04:32:53;;;;;;;10.87;3.90;;;5.90;99.90;;;;;;5106068;28;20440;-71
2024/02/21 04:35:21;;;;;;;11.60;3.33;;;5.90;99.90;;;;;;5106831;28;20479;-71
2024/02/21 04:37:50;;;;;;;10.43;3.60;;;6.00;99.90;;;;;;5105290;28;20998;-71
2024/02/21 04:40:19;;;;;;;13.60;3.83;;;5.90;99.90;;;;;;5100601;28;21011;-70
2024/02/21 04:42:48;;;;;;;11.83;3.70;;;5.80;99.90;;;;;;5106269;28;20449;-71
2024/02/21 04:45:17;;;;;;;10.70;3.30;;;5.70;99.90;;;;;;5106143;28;20539;-71
2024/02/21 04:47:45;;;;;;;15.70;4.00;;;5.60;99.90;;;;;;5102813;28;20449;-70
2024/02/21 04:50:13;;;;;;;10.70;3.73;;;5.50;99.90;;;;;;5100138;28;20477;-71
2024/02/21 04:52:41;;;;;;;11.67;4.00;;;5.50;99.90;;;;;;5104944;28;20441;-70
2024/02/21 04:55:09;;;;;;;15.07;4.47;;;5.60;99.90;;;;;;5104220;28;20491;-71
2024/02/21 04:57:37;;;;;;;8.90;3.00;;;5.70;99.90;;;;;;5104229;28;20451;-70
2024/02/21 05:00:08;;;;;;;12.73;3.53;;;5.70;99.90;;;;;;5100363;28;20942;-71
2024/02/21 05:02:36;;;;;;;11.60;3.60;;;5.60;99.90;;;;;;5105346;28;20443;-71
2024/02/21 05:05:05;;;;;;;13.33;3.53;;;5.40;99.90;;;;;;5100748;28;20545;-71
2024/02/21 05:07:33;;;;;;;12.03;3.20;;;5.20;99.90;;;;;;5105798;28;20459;-70
2024/02/21 05:10:01;;;;;;;12.60;3.70;;;5.10;99.90;;;;;;5103479;28;22072;-70
2024/02/21 05:12:30;;;;;;;9.23;3.00;;;4.90;99.90;;;;;;5104166;28;20880;-71
2024/02/21 05:14:57;;;;;;;12.23;4.47;;;4.80;99.90;;;;;;5101334;28;20550;-71
2024/02/21 05:17:27;;;;;;;13.57;4.03;;;4.70;99.90;;;;;;5105528;28;20436;-70
2024/02/21 05:19:55;;;;;;;12.40;4.17;;;4.70;99.90;;;;;;5101337;28;20437;-70
2024/02/21 05:22:23;;;;;;;12.33;3.87;;;4.60;99.90;;;;;;5103243;28;20992;-71
2024/02/21 05:24:51;;;;;;;13.37;3.73;;;4.60;99.90;;;;;;5099892;28;20471;-71
2024/02/21 05:27:19;;;;;;;15.77;4.27;;;4.60;99.90;;;;;;5105969;28;20907;-71
2024/02/21 05:29:48;;;;;;;13.30;4.27;;;4.60;99.90;;;;;;5105553;28;20486;-71
2024/02/21 05:32:16;;;;;;;12.00;4.20;;;4.50;99.90;;;;;;5106377;28;20440;-70
2024/02/21 05:34:45;;;;;;;11.10;3.37;;;4.60;99.90;;;;;;5099785;28;20514;-69
2024/02/21 05:37:13;;;;;;;10.80;3.63;;;4.70;99.90;;;;;;5105379;28;20938;-71
2024/02/21 05:39:41;;;;;;;14.00;3.00;;;4.80;99.90;;;;;;5102156;28;21284;-71
2024/02/21 05:42:09;;;;;;;13.47;3.83;;;4.80;99.90;;;;;;5093701;28;20898;-69
2024/02/21 05:44:37;;;;;;;10.70;3.60;;;5.00;99.90;;;;;;5104213;28;20503;-69
2024/02/21 05:47:09;;;;;;;9.80;3.40;;;5.00;99.90;;;;;;5103959;28;20896;-71
2024/02/21 05:49:37;;;;;;;11.47;3.70;;;5.10;99.90;;;;;;5104567;28;20447;-70
2024/02/21 05:52:07;;;;;;;10.73;2.83;;;5.10;99.90;;;;;;5105697;28;20469;-72
2024/02/21 05:54:38;;;;;;;12.40;3.47;;;5.20;99.90;;;;;;5102490;28;20509;-72
2024/02/21 05:57:07;;;;;;;10.90;3.37;;;5.20;99.90;;;;;;5103802;28;20534;-70
2024/02/21 05:59:36;;;;;;;10.83;2.90;;;5.30;99.90;;;;;;5104306;28;20444;-70
2024/02/21 06:02:04;;;;;;;11.30;4.07;;;5.30;99.90;;;;;;5104700;28;20436;-71
2024/02/21 06:04:32;;;;;;;13.80;3.80;;;5.30;99.90;;;;;;5108846;28;20555;-71
2024/02/21 06:07:01;;;;;;;14.43;2.90;;;5.30;99.90;;;;;;5103982;28;20449;-71
2024/02/21 06:09:30;;;;;;;14.50;3.40;;;5.20;99.90;;;;;;5106119;28;20839;-70
2024/02/21 06:11:58;;;;;;;10.27;3.50;;;5.30;99.90;;;;;;5104081;28;20517;-68
2024/02/21 06:14:26;;;;;;;10.20;3.20;;;5.20;99.90;;;;;;5109053;28;20516;-69
2024/02/21 06:16:54;;;;;;;14.10;3.07;;;5.20;99.90;;;;;;5098799;28;20507;-69
2024/02/21 06:19:22;;;;;;;8.20;2.50;;;5.10;99.90;;;;;;5106099;28;20945;-71
2024/02/21 06:21:50;;;;;;;10.97;3.23;;;5.00;99.90;;;;;;5097634;28;20439;-68
2024/02/21 06:24:18;;;;;;;14.20;3.40;;;5.00;99.90;;;;;;5107754;28;20852;-69
2024/02/21 06:26:47;;;;;;;13.57;6.03;;;4.80;99.90;;;;;;5101017;28;20884;-68
2024/02/21 06:29:15;;;;;;;12.63;3.77;;;4.70;99.90;;;;;;5100784;28;20463;-68
2024/02/21 06:31:43;;;;;;;12.33;3.80;;;4.50;99.90;;;;;;5106738;28;20485;-68
2024/02/21 06:34:11;;;;;;;11.30;3.80;;;4.50;99.90;;;;;;5106962;28;20827;-68
2024/02/21 06:36:39;;;;;;;9.57;3.10;;;4.60;99.90;;;;;;5106378;28;20445;-69
2024/02/21 06:39:08;;;;;;;10.57;3.03;;;4.70;99.90;;;;;;5109369;28;20448;-68
2024/02/21 06:41:36;;;;;;;13.57;4.20;;;4.80;99.90;;;;;;5102352;28;20431;-68
2024/02/21 06:44:05;;;;;;;11.67;3.30;;;4.80;99.90;;;;;;5108127;28;20492;-68
2024/02/21 06:46:34;;;;;;;12.33;4.50;;;4.90;99.90;;;;;;5108964;28;20459;-68
2024/02/21 06:49:03;;;;;;;12.40;3.77;;;4.90;99.90;;;;;;5105084;28;20901;-68
2024/02/21 06:51:31;;;;;;;11.40;3.50;;;4.90;99.90;;;;;;5107532;28;20865;-68
2024/02/21 06:53:59;;;;;;;12.57;3.67;;;4.80;99.90;;;;;;5101147;28;20452;-68
2024/02/21 06:56:28;;;;;;;14.90;3.70;;;4.70;99.90;;;;;;5108633;28;20641;-68
2024/02/21 06:59:08;;;;;;;13.13;5.10;;;4.80;99.90;;;;;;5108585;28;20536;-68
2024/02/21 07:01:39;;;;;;;12.73;3.20;;;5.00;99.90;;;;;;5107350;28;20473;-69
2024/02/21 07:04:07;;;;;;;10.60;3.10;;;5.00;99.90;;;;;;5106398;28;20448;-69
2024/02/21 07:06:35;;;;;;;11.63;3.60;;;5.20;99.90;;;;;;5106266;28;20439;-68
2024/02/21 07:09:03;;;;;;;11.83;3.40;;;5.20;99.90;;;;;;5105563;28;20449;-68
2024/02/21 07:11:31;;;;;;;11.60;3.47;;;5.30;99.90;;;;;;5101297;28;21087;-69
2024/02/21 07:13:59;;;;;;;11.30;3.80;;;5.40;99.90;;;;;;5098712;28;20977;-69
2024/02/21 07:16:29;;;;;;;12.20;2.77;;;5.50;99.90;;;;;;5107585;28;20469;-68
2024/02/21 07:18:58;;;;;;;15.70;3.53;;;5.60;99.90;;;;;;5107317;28;20457;-68
2024/02/21 07:21:26;;;;;;;12.70;2.70;;;5.70;99.90;;;;;;5107192;28;20455;-70
2024/02/21 07:23:54;;;;;;;10.63;2.83;;;5.80;99.90;;;;;;5108129;28;20930;-69
2024/02/21 07:26:22;;;;;;;10.37;2.47;;;5.80;99.90;;;;;;5107136;28;20537;-68
2024/02/21 07:28:50;;;;;;;13.27;3.10;;;6.00;99.90;;;;;;5107938;28;20962;-69
2024/02/21 07:31:18;;;;;;;9.93;2.60;;;6.20;99.90;;;;;;5106495;28;20475;-69
2024/02/21 07:33:47;;;;;;;11.87;2.90;;;6.40;99.90;;;;;;5101643;28;20446;-69
2024/02/21 07:36:17;;;;;;;10.97;3.13;;;6.50;99.90;;;;;;5106212;28;20469;-69
2024/02/21 07:38:45;;;;;;;9.33;2.27;;;6.60;99.90;;;;;;5105136;28;20433;-68
2024/02/21 07:41:12;;;;;;;13.20;3.10;;;6.70;99.90;;;;;;5104949;28;20461;-69
2024/02/21 07:43:40;;;;;;;14.07;3.60;;;6.90;99.90;;;;;;5105651;28;20436;-68
2024/02/21 07:46:08;;;;;;;11.10;2.63;;;7.10;99.90;;;;;;5101863;28;21062;-67
2024/02/21 07:48:36;;;;;;;10.70;3.03;;;7.20;99.90;;;;;;5103724;28;20445;-69
2024/02/21 07:51:06;;;;;;;9.77;2.60;;;7.30;99.90;;;;;;5101399;28;20480;-68
2024/02/21 07:53:34;;;;;;;13.63;2.33;;;7.50;99.90;;;;;;5106359;28;20543;-70
2024/02/21 07:56:02;;;;;;;14.63;3.90;;;7.60;99.90;;;;;;5106511;28;20582;-69
2024/02/21 07:58:30;;;;;;;11.47;2.63;;;7.70;99.90;;;;;;5104120;28;20525;-69
2024/02/21 08:00:58;;;;;;;13.40;2.43;;;7.80;99.90;;;;;;5105909;28;21126;-69
2024/02/21 08:03:26;;;;;;;9.73;2.60;;;8.00;99.90;;;;;;5106993;28;20449;-69
2024/02/21 08:05:54;;;;;;;12.20;3.30;;;8.10;99.90;;;;;;5105703;28;20549;-69
2024/02/21 08:08:24;;;;;;;10.40;3.07;;;8.10;99.90;;;;;;5106019;28;20442;-69
2024/02/21 08:10:52;;;;;;;9.53;2.30;;;8.20;99.90;;;;;;5105060;28;20431;-69
2024/02/21 08:13:21;;;;;;;10.20;2.23;;;8.30;99.90;;;;;;5102782;28;21034;-69
2024/02/21 08:15:49;;;;;;;10.37;2.57;;;8.40;99.90;;;;;;5104009;28;20539;-69
2024/02/21 08:18:17;;;;;;;9.27;2.70;;;8.50;99.90;;;;;;5107556;28;20455;-70
2024/02/21 08:20:45;;;;;;;9.97;2.17;;;8.70;99.90;;;;;;5099681;28;20443;-69
2024/02/21 08:23:13;;;;;;;11.30;2.33;;;8.90;99.90;;;;;;5105924;28;20443;-69
2024/02/21 08:25:42;;;;;;;13.10;2.80;;;9.10;99.90;;;;;;5104394;28;20511;-69
2024/02/21 08:28:10;;;;;;;10.60;2.20;;;9.10;99.90;;;;;;5106922;28;20522;-70
2024/02/21 08:30:38;;;;;;;8.87;1.90;;;9.30;99.90;;;;;;5105536;28;20965;-69
2024/02/21 08:33:06;;;;;;;11.57;2.60;;;9.40;99.90;;;;;;5095189;28;20486;-68
2024/02/21 08:35:34;;;;;;;11.10;2.43;;;9.60;99.90;;;;;;5104284;28;20870;-69
2024/02/21 08:38:02;;;;;;;9.73;2.20;;;9.60;99.90;;;;;;5103955;28;20438;-69
2024/02/21 08:40:30;;;;;;;10.20;2.03;;;9.70;99.90;;;;;;5107795;28;20448;-69
2024/02/21 08:43:00;;;;;;;13.10;2.47;;;9.80;99.90;;;;;;5099286;28;20459;-68
2024/02/21 08:45:29;;;;;;;9.57;2.10;;;9.90;99.90;;;;;;5107419;28;20986;-69
2024/02/21 08:47:57;;;;;;;9.07;2.00;;;9.90;99.90;;;;;;5095853;28;20438;-69
2024/02/21 08:50:25;;;;;;;16.77;3.80;;;10.00;99.90;;;;;;5100109;28;20445;-69
2024/02/21 08:52:56;;;;;;;9.90;4.13;;;10.10;99.90;;;;;;5104906;28;20477;-69
2024/02/21 08:55:25;;;;;;;9.80;2.10;;;10.10;99.90;;;;;;5105665;28;20463;-69
2024/02/21 08:57:53;;;;;;;9.63;2.03;;;10.30;99.90;;;;;;5099238;28;20464;-69
2024/02/21 09:00:26;;;;;;;12.47;2.43;;;10.30;99.90;;;;;;5088476;28;20473;-69
2024/02/21 09:02:56;;;;;;;10.97;2.20;;;10.30;99.90;;;;;;5100240;28;20432;-69
2024/02/21 09:05:24;;;;;;;16.70;2.30;;;10.40;99.90;;;;;;5107964;28;20900;-68
2024/02/21 09:07:53;;;;;;;10.80;2.60;;;10.50;99.90;;;;;;5107983;28;20454;-69
2024/02/21 09:10:21;;;;;;;12.93;3.60;;;10.50;99.90;;;;;;5107906;28;20829;-69
2024/02/21 09:12:50;;;;;;;9.23;1.93;;;10.60;99.90;;;;;;5107862;28;20485;-69
2024/02/21 09:15:18;;;;;;;11.30;2.10;;;10.50;99.60;;;;;;5108152;28;20479;-69
2024/02/21 09:17:47;;;;;;;10.67;1.77;;;10.50;99.90;;;;;;5107878;28;20861;-69
2024/02/21 09:20:16;;;;;;;12.07;2.00;;;10.50;99.80;;;;;;5108297;28;20454;-70
2024/02/21 09:22:44;;;;;;;7.53;1.70;;;10.60;99.40;;;;;;5096719;28;21125;-69
2024/02/21 09:25:13;;;;;;;10.10;2.00;;;10.60;99.00;;;;;;5087916;28;20638;-69
2024/02/21 09:27:41;;;;;;;12.20;2.80;;;10.50;98.80;;;;;;5087325;28;20445;-68
2024/02/21 09:30:09;;;;;;;11.10;1.80;;;10.70;99.30;;;;;;5087696;28;20454;-69
2024/02/21 09:32:37;;;;;;;11.73;2.50;;;10.80;99.90;;;;;;5087341;28;21136;-69
2024/02/21 09:35:07;;;;;;;10.77;2.80;;;10.70;99.80;;;;;;5087407;28;20479;-69
2024/02/21 09:37:37;;;;;;;9.60;2.30;;;11.00;97.90;;;;;;5094936;28;20459;-69
2024/02/21 09:40:07;;;;;;;10.57;2.37;;;11.00;98.60;;;;;;5087609;28;20900;-69
2024/02/21 09:42:39;;;;;;;8.80;2.00;;;11.10;97.40;;;;;;5087149;28;20473;-69
2024/02/21 09:45:14;;;;;;;9.83;2.33;;;11.20;97.70;;;;;;5087492;28;20479;-68
2024/02/21 09:47:51;;;;;;;9.30;2.30;;;11.50;96.90;;;;;;5087327;28;20969;-70
2024/02/21 09:50:21;;;;;;;11.93;2.30;;;11.60;96.90;;;;;;5087541;28;20914;-69
2024/02/21 09:52:52;;;;;;;9.57;2.43;;;11.90;97.10;;;;;;5089139;28;20508;-69
2024/02/21 09:55:20;;;;;;;10.50;2.30;;;12.20;95.20;;;;;;5107830;28;20465;-68
2024/02/21 09:57:50;;;;;;;11.30;2.00;;;12.30;94.40;;;;;;5107826;28;20832;-69
2024/02/21 10:00:21;;;;;;;11.63;2.10;;;12.50;94.50;;;;;;5107666;28;20442;-70
2024/02/21 10:02:50;;;;;;;11.87;3.60;;;12.60;92.70;;;;;;5107456;28;20440;-69
2024/02/21 10:05:18;;;;;;;11.23;2.30;;;12.80;92.10;;;;;;5107834;28;20592;-69
2024/02/21 10:07:49;;;;;;;11.30;2.33;;;13.10;92.70;;;;;;5107460;28;21151;-70
2024/02/21 10:10:21;;;;;;;7.90;1.60;;;13.40;91.30;;;;;;5107348;28;20456;-69
2024/02/21 10:12:50;;;;;;;8.23;1.80;;;13.90;91.40;;;;;;5107283;28;21032;-69
2024/02/21 10:15:22;;;;;;;8.20;1.67;;;14.20;84.60;;;;;;5107480;28;20518;-69
2024/02/21 10:17:50;;;;;;;8.07;1.93;;;14.30;82.70;;;;;;5107471;28;20477;-69
2024/02/21 10:20:18;;;;;;;10.00;2.07;;;14.30;82.30;;;;;;5107633;28;20441;-69
2024/02/21 10:22:48;;;;;;;10.93;2.63;;;14.40;82.10;;;;;;5107328;28;20438;-69
2024/02/21 10:25:16;;;;;;;10.47;2.10;;;14.60;82.80;;;;;;5107070;28;20477;-69
2024/02/21 10:27:44;;;;;;;8.23;1.87;;;14.90;77.80;;;;;;5107695;28;20443;-69
2024/02/21 10:30:16;;;;;;;12.37;1.97;;;14.90;76.60;;;;;;5107544;28;21004;-69
2024/02/21 10:32:51;;;;;;;10.40;2.17;;;15.00;74.80;;;;;;5107212;28;20481;-69
2024/02/21 10:35:27;;;;;;;10.10;2.43;;;15.10;76.90;;;;;;5107498;28;20471;-69
2024/02/21 10:37:57;;;;;;;10.23;2.10;;;15.30;74.00;;;;;;5107411;28;20445;-69
2024/02/21 10:40:27;;;;;;;11.70;2.10;;;15.50;72.90;;;;;;5107646;28;20481;-69
2024/02/21 10:43:01;;;;;;;7.70;1.77;;;15.60;71.70;;;;;;5107672;28;20502;-69
2024/02/21 10:45:34;;;;;;;8.40;1.70;;;15.80;71.90;;;;;;5107736;28;20469;-69
2024/02/21 10:48:10;;;;;;;8.70;1.80;;;16.10;69.30;;;;;;5107336;28;20942;-69
2024/02/21 10:50:54;;;;;;;10.47;2.30;;;16.20;66.90;;;;;;5110063;28;20531;-70
2024/02/21 10:53:33;;;;;;;10.27;2.00;;;16.10;67.80;;;;;;5111445;28;20492;-69
2024/02/21 10:56:12;;;;;;;8.33;1.93;;;16.00;68.70;;;;;;5111123;28;20999;-70
2024/02/21 10:58:42;;;;;;;10.17;1.90;;;16.00;66.70;;;;;;5110550;28;20441;-69
2024/02/21 11:01:12;;;;;;;9.60;1.43;;;15.90;68.40;;;;;;5110818;28;20444;-69
2024/02/21 11:03:41;;;;;;;10.10;2.00;;;15.70;66.70;;;;;;5110692;28;20437;-69
2024/02/21 11:06:11;;;;;;;9.60;1.77;;;15.40;65.50;;;;;;5110871;28;20473;-70
2024/02/21 11:08:40;;;;;;;6.80;1.30;;;15.10;67.20;;;;;;5109622;28;20482;-69
2024/02/21 11:11:10;;;;;;;9.37;1.70;;;15.10;68.70;;;;;;5090145;28;20449;-69
2024/02/21 11:13:51;;;;;;;9.53;1.83;;;14.80;70.00;;;;;;5098702;28;20477;-69
2024/02/21 11:16:23;;;;;;;11.57;1.87;;;14.80;69.00;;;;;;5110463;28;20483;-69
2024/02/21 11:18:52;;;;;;;8.90;1.73;;;15.00;67.80;;;;;;5110335;28;20451;-69
2024/02/21 11:21:20;;;;;;;9.63;1.60;;;14.90;67.10;;;;;;5110278;28;21027;-70
2024/02/21 11:23:57;;;;;;;8.70;1.70;;;14.90;65.10;;;;;;5110478;28;20501;-70
2024/02/21 11:26:30;;;;;;;9.40;2.53;;;15.00;66.60;;;;;;5110393;28;20554;-69
2024/02/21 11:28:59;;;;;;;10.20;1.80;;;14.70;64.00;;;;;;5109946;28;20475;-69
2024/02/21 11:31:28;;;;;;;9.50;1.70;;;14.60;65.80;;;;;;5110222;28;20890;-69
2024/02/21 11:33:58;;;;;;;9.67;2.10;;;14.60;67.40;;;;;;5110220;28;20481;-69
2024/02/21 11:36:27;;;;;;;9.10;2.20;;;14.80;67.40;;;;;;5110354;28;20540;-69
2024/02/21 11:39:04;;;;;;;7.50;1.40;;;15.20;64.80;;;;;;5110210;28;20448;-69
2024/02/21 11:41:32;;;;;;;7.90;1.50;;;15.30;61.50;;;;;;5110032;28;20453;-68
2024/02/21 11:44:00;;;;;;;7.30;1.37;;;15.40;61.40;;;;;;5110206;28;20437;-69
2024/02/21 11:46:28;;;;;;;8.70;1.70;;;15.60;63.80;;;;;;5109563;28;20575;-69
2024/02/21 11:49:00;;;;;;;10.13;2.00;;;15.80;62.20;;;;;;5109953;28;20570;-69
2024/02/21 11:51:28;;;;;;;9.57;1.80;;;16.00;63.50;;;;;;5109670;28;20478;-69
2024/02/21 11:53:57;;;;;;;8.00;1.93;;;16.30;62.00;;;;;;5109730;28;21089;-69
2024/02/21 11:56:29;;;;;;;9.20;2.00;;;16.40;61.60;;;;;;5109630;28;20452;-69
2024/02/21 11:59:00;;;;;;;9.30;2.07;;;16.60;62.50;;;;;;5109795;28;20453;-69
2024/02/21 12:01:28;;;;;;;7.63;1.13;;;16.40;59.20;;;;;;5109071;28;20454;-68
2024/02/21 12:03:57;;;;;;;8.03;1.60;;;16.00;58.20;;;;;;5109954;28;21120;-69
2024/02/21 12:06:25;;;;;;;9.50;1.90;;;15.60;59.70;;;;;;5109610;28;20453;-69
2024/02/21 12:08:53;;;;;;;9.30;1.70;;;15.60;60.20;;;;;;5109472;28;20453;-69
2024/02/21 12:11:23;;;;;;;8.57;1.70;;;15.60;60.90;;;;;;5109170;28;21243;-69
2024/02/21 12:14:03;;;;;;;9.23;1.70;;;15.60;60.00;;;;;;5109172;28;20481;-69
2024/02/21 12:16:31;;;;;;;9.53;1.90;;;15.80;61.80;;;;;;5109340;28;21207;-70
2024/02/21 12:19:00;;;;;;;9.40;1.60;;;15.90;63.30;;;;;;5109181;28;20453;-69
2024/02/21 12:21:32;;;;;;;8.00;1.63;;;16.00;61.40;;;;;;5108912;28;20842;-69
2024/02/21 12:24:01;;;;;;;8.90;1.70;;;16.10;60.10;;;;;;5109005;28;20536;-69
2024/02/21 12:26:30;;;;;;;9.37;2.27;;;16.10;59.10;;;;;;5108739;28;20506;-69
2024/02/21 12:28:58;;;;;;;8.93;1.70;;;16.20;59.10;;;;;;5108602;28;20452;-69
2024/02/21 12:31:26;;;;;;;8.63;1.70;;;16.40;58.70;;;;;;5106986;28;20441;-69
2024/02/21 12:33:55;;;;;;;9.10;1.57;;;16.30;59.10;;;;;;5103680;28;20500;-69
2024/02/21 12:36:23;;;;;;;8.40;1.80;;;16.40;59.20;;;;;;5087911;28;20443;-69
2024/02/21 12:38:51;;;;;;;8.73;1.50;;;16.50;60.70;;;;;;5086513;28;20450;-70
2024/02/21 12:41:19;;;;;;;8.83;2.17;;;16.50;58.10;;;;;;5087697;28;20442;-68
2024/02/21 12:43:48;;;;;;;12.00;2.03;;;16.20;58.20;;;;;;5087254;28;20984;-69
2024/02/21 12:46:16;;;;;;;7.73;1.80;;;16.20;57.80;;;;;;5086965;28;20555;-69
2024/02/21 12:48:44;;;;;;;8.40;1.63;;;16.50;57.50;;;;;;5087413;28;20445;-68
2024/02/21 12:51:12;;;;;;;8.80;1.70;;;16.20;58.00;;;;;;5105915;28;20449;-68
2024/02/21 12:53:40;;;;;;;9.97;3.47;;;15.70;59.50;;;;;;5107185;28;20913;-68